Terminal Aerodrome Forecast
Issued by NWS

Home | Current Version | Previous Version | Text Only | Print | Product List | Glossary On
Versions: 1 2 3 4 5 6 7 8 9 10 11 12 13 14 15 16 17 18 19 20
446
FTUS43 KMQT 241734
TAFIWD
TAF
KIWD 241734Z 2418/2518 03010G16KT 2SM -SN BLSN OVC010
      TEMPO 2418/2422 1 1/2SM -SN BR
     FM242200 01014G26KT 1SM -SN BLSN OVC010
     FM250400 36014G26KT 3/4SM -SN BLSN OVC008
     FM251100 33015G24KT 1SM -SN BLSN OVC008
     FM251300 32016G20KT 4SM -SHSN BLSN OVC010=

USA.gov is the U.S. government's official web portal to all federal, state and local government web resources and services.